createdAt,value
2022-10-25T00:01:55.929Z,16.48
2022-10-25T00:04:23.651Z,16.51
2022-10-25T00:06:50.970Z,16.38
2022-10-25T00:09:18.563Z,16.18
2022-10-25T00:11:46.442Z,16.31
2022-10-25T00:14:18.714Z,16.64
2022-10-25T00:16:46.401Z,16.56
2022-10-25T00:19:14.340Z,16.29
2022-10-25T00:21:41.692Z,16.30
2022-10-25T00:24:13.565Z,16.20
2022-10-25T00:26:41.350Z,16.54
2022-10-25T00:29:11.694Z,16.34
2022-10-25T00:31:39.101Z,16.20
2022-10-25T00:34:06.523Z,16.15
2022-10-25T00:36:34.143Z,16.47
2022-10-25T00:39:01.516Z,16.03
2022-10-25T00:41:31.951Z,15.96
2022-10-25T00:44:41.117Z,16.01
2022-10-25T00:47:11.207Z,16.20
2022-10-25T00:49:38.795Z,16.02
2022-10-25T00:52:06.952Z,16.42
2022-10-25T00:54:37.903Z,16.24
2022-10-25T00:57:11.238Z,16.02
2022-10-25T00:59:38.942Z,15.79
2022-10-25T01:02:06.759Z,15.89
2022-10-25T01:04:34.566Z,15.89
2022-10-25T01:07:02.702Z,15.72
2022-10-25T01:09:32.919Z,16.06
2022-10-25T01:12:00.382Z,16.16
2022-10-25T01:14:28.264Z,16.17
2022-10-25T01:17:10.051Z,15.63
2022-10-25T01:19:44.228Z,15.68
2022-10-25T01:22:49.561Z,16.02
2022-10-25T01:25:38.042Z,15.77
2022-10-25T01:28:32.576Z,15.67
2022-10-25T01:31:00.314Z,15.44
2022-10-25T01:33:50.589Z,15.66
2022-10-25T01:36:28.911Z,15.63
2022-10-25T01:39:16.054Z,15.59
2022-10-25T01:42:03.588Z,15.32
2022-10-25T01:45:01.741Z,15.64
2022-10-25T01:47:38.556Z,15.87
2022-10-25T01:50:09.227Z,15.32
2022-10-25T01:52:36.734Z,15.54
2022-10-25T01:55:06.979Z,15.43
2022-10-25T01:57:46.934Z,15.76
2022-10-25T02:00:19.591Z,15.38
2022-10-25T02:03:08.997Z,15.89
2022-10-25T02:06:03.163Z,15.87
2022-10-25T02:09:03.177Z,15.69
2022-10-25T02:11:31.957Z,15.42
2022-10-25T02:14:19.931Z,15.67
2022-10-25T02:16:59.356Z,15.27
2022-10-25T02:19:32.084Z,15.12
2022-10-25T02:22:01.787Z,15.42
2022-10-25T02:24:30.629Z,15.60
2022-10-25T02:26:59.003Z,15.13
2022-10-25T02:29:28.625Z,15.01
2022-10-25T02:31:55.958Z,15.73
2022-10-25T02:34:23.521Z,15.61
2022-10-25T02:36:53.157Z,15.74
2022-10-25T02:39:23.827Z,15.25
2022-10-25T02:41:52.930Z,15.31
2022-10-25T02:44:20.320Z,15.69
2022-10-25T02:46:47.657Z,15.72
2022-10-25T02:49:15.278Z,15.70
2022-10-25T02:51:42.659Z,15.69
2022-10-25T02:54:10.091Z,15.78
2022-10-25T02:56:38.132Z,15.58
2022-10-25T02:59:06.361Z,15.69
2022-10-25T03:01:33.740Z,15.31
2022-10-25T03:04:01.412Z,15.05
2022-10-25T03:06:28.735Z,15.45
2022-10-25T03:08:56.074Z,15.33
2022-10-25T03:11:23.678Z,15.64
2022-10-25T03:13:50.994Z,15.81
2022-10-25T03:16:18.303Z,15.68
2022-10-25T03:18:45.881Z,15.89
2022-10-25T03:21:13.200Z,15.57
2022-10-25T03:23:40.624Z,15.70
2022-10-25T03:26:08.210Z,15.66
2022-10-25T03:28:35.537Z,15.43
2022-10-25T03:31:02.868Z,15.92
2022-10-25T03:35:58.694Z,15.50
2022-10-25T03:38:26.028Z,15.34
2022-10-25T03:40:53.630Z,15.77
2022-10-25T03:43:20.992Z,15.61
2022-10-25T03:45:48.356Z,15.10
2022-10-25T03:48:16.024Z,15.03
2022-10-25T03:50:43.527Z,15.28
2022-10-25T03:53:11.347Z,15.39
2022-10-25T03:55:39.046Z,15.28
2022-10-25T03:58:06.424Z,15.59
2022-10-25T04:00:33.833Z,15.64
2022-10-25T04:03:02.461Z,15.79
2022-10-25T04:05:31.000Z,15.15
2022-10-25T04:07:58.950Z,15.45
2022-10-25T04:10:26.860Z,15.52
2022-10-25T04:12:54.936Z,15.70
2022-10-25T04:15:23.525Z,15.54
2022-10-25T04:17:52.080Z,15.76
2022-10-25T04:20:19.840Z,15.57
2022-10-25T04:22:54.060Z,15.65
2022-10-25T04:25:22.312Z,15.65
2022-10-25T04:27:49.915Z,15.27
2022-10-25T04:30:17.572Z,15.61
2022-10-25T04:32:45.459Z,15.78
2022-10-25T04:35:12.979Z,15.94
2022-10-25T04:37:40.316Z,15.53
2022-10-25T04:40:08.673Z,15.76
2022-10-25T04:42:35.994Z,15.95
2022-10-25T04:45:03.695Z,15.73
2022-10-25T04:47:32.518Z,15.81
2022-10-25T04:50:00.042Z,15.85
2022-10-25T04:52:29.926Z,15.80
2022-10-25T04:54:58.039Z,15.89
2022-10-25T04:57:25.994Z,15.97
2022-10-25T04:59:53.503Z,15.54
2022-10-25T05:02:21.118Z,15.66
2022-10-25T05:04:48.444Z,15.88
2022-10-25T05:07:19.799Z,16.07
2022-10-25T05:09:47.735Z,15.94
2022-10-25T05:12:15.530Z,15.77
2022-10-25T05:14:42.914Z,15.87
2022-10-25T05:17:10.522Z,15.67
2022-10-25T05:19:37.930Z,15.84
2022-10-25T05:22:05.283Z,15.73
2022-10-25T05:24:32.922Z,15.90
2022-10-25T05:27:00.277Z,15.78
2022-10-25T05:29:27.655Z,15.68
2022-10-25T05:31:55.460Z,15.61
2022-10-25T05:34:22.845Z,15.75
2022-10-25T05:36:50.184Z,15.94
2022-10-25T05:39:17.777Z,15.96
2022-10-25T05:41:45.151Z,16.04
2022-10-25T05:44:12.491Z,15.70
2022-10-25T05:46:40.070Z,15.43
2022-10-25T05:49:07.392Z,15.66
2022-10-25T05:51:41.560Z,15.85
2022-10-25T05:54:12.019Z,15.77
2022-10-25T05:56:40.030Z,15.64
2022-10-25T05:59:09.880Z,15.81
2022-10-25T06:01:40.378Z,15.79
2022-10-25T06:04:09.019Z,15.51
2022-10-25T06:06:37.419Z,16.02
2022-10-25T06:09:05.376Z,15.91
2022-10-25T06:11:32.967Z,15.98
2022-10-25T06:14:00.435Z,16.23
2022-10-25T06:16:27.957Z,15.91
2022-10-25T06:18:55.837Z,16.43
2022-10-25T06:21:28.355Z,15.94
2022-10-25T06:23:56.771Z,15.80
2022-10-25T06:26:27.014Z,16.02
2022-10-25T06:28:56.516Z,16.09
2022-10-25T06:31:24.739Z,15.89
2022-10-25T06:33:52.316Z,15.92
2022-10-25T06:36:21.690Z,15.92
2022-10-25T06:38:49.965Z,15.97
2022-10-25T06:41:19.514Z,16.13
2022-10-25T06:43:46.997Z,15.93
2022-10-25T06:46:21.484Z,16.23
2022-10-25T06:48:49.449Z,16.33
2022-10-25T06:51:17.029Z,16.26
2022-10-25T06:53:44.602Z,16.25
2022-10-25T06:56:14.723Z,16.54
2022-10-25T06:58:42.765Z,16.49
2022-10-25T07:01:15.465Z,16.75
2022-10-25T07:03:43.650Z,16.88
2022-10-25T07:06:16.654Z,16.54
2022-10-25T07:08:45.959Z,16.91
2022-10-25T07:11:18.286Z,16.73
2022-10-25T07:13:47.035Z,16.74
2022-10-25T07:16:16.861Z,16.66
2022-10-25T07:18:44.536Z,16.69
2022-10-25T07:21:20.538Z,16.89
2022-10-25T07:23:49.254Z,16.66
2022-10-25T07:26:18.315Z,16.90
2022-10-25T07:28:47.022Z,16.98
2022-10-25T07:31:26.530Z,16.94
2022-10-25T07:33:55.012Z,16.86
2022-10-25T07:36:22.487Z,16.68
2022-10-25T07:38:49.795Z,16.68
2022-10-25T07:41:17.512Z,16.93
2022-10-25T07:43:44.864Z,17.05
2022-10-25T07:46:12.281Z,17.00
2022-10-25T07:48:39.856Z,16.94
2022-10-25T07:51:10.694Z,17.02
2022-10-25T07:53:38.211Z,17.26
2022-10-25T07:56:06.445Z,17.08
2022-10-25T07:58:33.792Z,17.09
2022-10-25T08:01:06.231Z,17.31
2022-10-25T08:03:33.951Z,17.65
2022-10-25T08:06:01.725Z,17.46
2022-10-25T08:08:29.716Z,17.63
2022-10-25T08:10:57.878Z,17.50
2022-10-25T08:13:25.430Z,17.55
2022-10-25T08:15:54.166Z,17.59
2022-10-25T08:18:22.544Z,17.90
2022-10-25T08:21:01.637Z,17.76
2022-10-25T08:23:31.585Z,17.37
2022-10-25T08:26:00.133Z,17.58
2022-10-25T08:28:27.558Z,17.30
2022-10-25T08:30:55.777Z,17.36
2022-10-25T08:33:24.064Z,17.33
2022-10-25T08:35:51.466Z,17.52
2022-10-25T08:38:19.032Z,17.70
2022-10-25T08:40:57.010Z,17.74
2022-10-25T08:43:48.940Z,17.69
2022-10-25T08:46:23.921Z,17.40
2022-10-25T08:49:15.716Z,17.26
2022-10-25T08:51:45.403Z,17.29
2022-10-25T08:54:35.638Z,17.37
2022-10-25T08:57:15.514Z,17.68
2022-10-25T08:59:48.490Z,17.54
2022-10-25T09:02:55.030Z,17.74
2022-10-25T09:05:44.901Z,18.09
2022-10-25T09:08:34.074Z,17.61
2022-10-25T09:11:10.826Z,17.96
2022-10-25T09:13:40.901Z,17.88
2022-10-25T09:16:38.787Z,17.81
2022-10-25T09:19:36.303Z,17.56
2022-10-25T09:22:05.936Z,17.93
2022-10-25T09:24:57.671Z,17.94
2022-10-25T09:27:36.126Z,17.68
2022-10-25T09:30:13.234Z,17.73
2022-10-25T09:32:47.671Z,17.70
2022-10-25T09:35:21.712Z,17.68
2022-10-25T09:37:52.594Z,17.71
2022-10-25T09:40:23.163Z,17.52
2022-10-25T09:43:02.146Z,17.79
2022-10-25T09:45:37.362Z,17.70
2022-10-25T09:48:13.230Z,17.80
2022-10-25T09:50:52.301Z,17.47
2022-10-25T09:53:23.163Z,17.51
2022-10-25T09:56:01.884Z,17.87
2022-10-25T09:58:31.463Z,17.97
2022-10-25T10:01:05.223Z,17.88
2022-10-25T10:03:35.385Z,17.88
2022-10-25T10:06:06.643Z,18.19
2022-10-25T10:08:35.476Z,17.76
2022-10-25T10:11:04.904Z,17.68
2022-10-25T10:13:43.236Z,17.53
2022-10-25T10:16:36.455Z,17.70
2022-10-25T10:19:18.429Z,18.14
2022-10-25T10:21:51.420Z,18.19
2022-10-25T10:24:25.683Z,18.08
2022-10-25T10:26:57.254Z,17.54
2022-10-25T10:29:35.036Z,17.27
2022-10-25T10:32:21.388Z,18.02
2022-10-25T10:34:55.227Z,17.95
2022-10-25T10:37:24.489Z,18.06
2022-10-25T10:39:51.656Z,18.10
2022-10-25T10:42:43.432Z,17.99
2022-10-25T10:45:12.311Z,17.63
2022-10-25T10:47:48.780Z,18.04
2022-10-25T10:50:22.573Z,18.15
2022-10-25T10:53:01.942Z,18.08
2022-10-25T10:55:32.672Z,17.54
2022-10-25T10:58:06.118Z,18.13
2022-10-25T11:00:34.451Z,18.55
2022-10-25T11:03:01.888Z,18.18
2022-10-25T11:05:33.915Z,18.23
2022-10-25T11:08:07.641Z,17.88
2022-10-25T11:10:38.710Z,17.81
2022-10-25T11:13:14.975Z,18.45
2022-10-25T11:16:24.431Z,18.50
2022-10-25T11:19:06.468Z,18.70
2022-10-25T11:21:33.658Z,18.72
2022-10-25T11:24:38.200Z,19.01
2022-10-25T11:27:11.468Z,19.15
2022-10-25T11:30:00.739Z,19.47
2022-10-25T11:32:51.276Z,18.73
2022-10-25T11:35:41.238Z,19.29
2022-10-25T11:38:34.254Z,20.19
2022-10-25T11:41:15.686Z,20.47
2022-10-25T11:43:52.801Z,20.74
2022-10-25T11:46:32.731Z,20.79
2022-10-25T11:49:28.685Z,21.55
2022-10-25T11:55:09.518Z,22.76
2022-10-25T11:57:45.725Z,21.95
2022-10-25T12:00:22.409Z,20.90
2022-10-25T12:03:02.458Z,21.38
2022-10-25T12:06:07.001Z,21.23
2022-10-25T12:09:13.034Z,21.69
2022-10-25T12:11:49.954Z,22.03
2022-10-25T12:14:24.333Z,21.99
2022-10-25T12:16:51.665Z,22.30
2022-10-25T12:19:27.049Z,23.22
2022-10-25T12:22:04.188Z,23.82
2022-10-25T12:24:39.282Z,23.24
2022-10-25T12:27:08.428Z,23.20
2022-10-25T12:29:40.176Z,23.14
2022-10-25T12:32:15.754Z,22.63
2022-10-25T12:34:46.108Z,23.28
2022-10-25T12:37:49.073Z,22.79
2022-10-25T12:40:19.811Z,23.02
2022-10-25T12:42:48.389Z,21.96
2022-10-25T12:45:38.921Z,21.97
2022-10-25T12:48:48.026Z,21.57
2022-10-25T12:51:49.744Z,21.68
2022-10-25T12:54:29.997Z,21.52
2022-10-25T12:57:25.562Z,20.45
2022-10-25T13:00:03.776Z,21.19
2022-10-25T13:02:47.639Z,20.92
2022-10-25T13:05:30.708Z,20.22
2022-10-25T13:08:00.138Z,21.12
2022-10-25T13:10:32.222Z,20.73
2022-10-25T13:13:04.727Z,20.87
2022-10-25T13:15:50.223Z,21.12
2022-10-25T13:18:40.032Z,20.57
2022-10-25T13:21:12.220Z,20.15
2022-10-25T13:23:42.560Z,20.30
2022-10-25T13:26:12.339Z,20.74
2022-10-25T13:28:51.039Z,20.50
2022-10-25T13:31:33.973Z,20.31
2022-10-25T13:34:13.366Z,20.61
2022-10-25T13:36:54.828Z,20.11
2022-10-25T13:39:45.167Z,20.80
2022-10-25T13:42:15.726Z,19.73
2022-10-25T13:45:04.819Z,19.81
2022-10-25T13:47:50.470Z,20.47
2022-10-25T13:50:23.814Z,20.31
2022-10-25T13:53:22.477Z,20.32
2022-10-25T13:55:55.482Z,20.18
2022-10-25T13:58:31.654Z,20.17
2022-10-25T14:01:15.114Z,20.58
2022-10-25T14:03:48.432Z,20.78
2022-10-25T14:06:28.100Z,20.92
2022-10-25T14:09:33.813Z,20.81
2022-10-25T14:12:01.130Z,20.96
2022-10-25T14:14:29.979Z,20.97
2022-10-25T14:17:19.411Z,21.03
2022-10-25T14:19:56.499Z,20.57
2022-10-25T14:22:32.673Z,21.05
2022-10-25T14:25:06.249Z,20.77
2022-10-25T14:27:35.984Z,20.72
2022-10-25T14:30:28.856Z,20.88
2022-10-25T14:33:01.157Z,20.89
2022-10-25T14:35:49.246Z,20.73
2022-10-25T14:38:22.187Z,20.70
2022-10-25T14:40:57.208Z,20.64
2022-10-25T14:43:26.035Z,20.67
2022-10-25T14:46:09.784Z,20.79
2022-10-25T14:48:37.245Z,20.16
2022-10-25T14:51:21.790Z,20.31
2022-10-25T14:54:00.651Z,20.35
2022-10-25T14:56:31.958Z,20.11
2022-10-25T14:58:59.980Z,20.29
2022-10-25T15:01:27.973Z,19.99
2022-10-25T15:03:57.323Z,19.95
2022-10-25T15:06:27.370Z,19.91
2022-10-25T15:09:28.994Z,20.03
2022-10-25T15:12:07.525Z,20.11
2022-10-25T15:14:37.047Z,20.16
2022-10-25T15:17:15.841Z,20.18
2022-10-25T15:20:07.381Z,19.91
2022-10-25T15:22:37.370Z,19.59
2022-10-25T15:25:23.289Z,19.63
2022-10-25T15:27:52.060Z,19.38
2022-10-25T15:30:37.787Z,19.54
2022-10-25T15:33:10.192Z,19.30
2022-10-25T15:35:48.287Z,19.06
2022-10-25T15:38:17.493Z,19.16
2022-10-25T15:40:48.411Z,18.87
2022-10-25T15:43:15.772Z,19.02
2022-10-25T15:45:44.038Z,18.75
2022-10-25T15:48:20.371Z,18.65
2022-10-25T15:50:50.665Z,18.52
2022-10-25T15:53:18.396Z,18.63
2022-10-25T15:55:46.034Z,18.52
2022-10-25T15:58:13.391Z,18.38
2022-10-25T16:00:41.077Z,18.49
2022-10-25T16:03:16.224Z,18.21
2022-10-25T16:05:43.552Z,18.19
2022-10-25T16:08:11.209Z,18.15
2022-10-25T16:10:38.815Z,17.75
2022-10-25T16:13:10.449Z,17.97
2022-10-25T16:15:38.178Z,17.62
2022-10-25T16:18:06.428Z,17.58
2022-10-25T16:20:34.578Z,17.71
2022-10-25T16:23:02.206Z,17.36
2022-10-25T16:25:32.917Z,17.63
2022-10-25T16:28:00.824Z,17.55
2022-10-25T16:30:32.408Z,17.40
2022-10-25T16:32:59.804Z,17.24
2022-10-25T16:35:27.115Z,17.27
2022-10-25T16:37:54.995Z,17.01
2022-10-25T16:40:23.033Z,17.08
2022-10-25T16:42:50.665Z,16.96
2022-10-25T16:45:33.152Z,16.85
2022-10-25T16:48:07.334Z,16.85
2022-10-25T16:50:38.317Z,16.65
2022-10-25T16:53:09.718Z,16.25
2022-10-25T16:55:37.371Z,16.42
2022-10-25T16:58:05.143Z,16.62
2022-10-25T17:00:35.408Z,16.33
2022-10-25T17:03:03.779Z,16.54
2022-10-25T17:05:33.473Z,16.59
2022-10-25T17:08:00.838Z,16.84
2022-10-25T17:10:28.690Z,16.77
2022-10-25T17:13:03.354Z,16.67
2022-10-25T17:15:31.628Z,16.44
2022-10-25T17:17:59.525Z,16.26
2022-10-25T17:20:27.214Z,16.30
2022-10-25T17:22:54.844Z,16.23
2022-10-25T17:25:22.208Z,15.88
2022-10-25T17:27:51.533Z,16.07
2022-10-25T17:30:20.687Z,15.98
2022-10-25T17:32:48.637Z,15.92
2022-10-25T17:35:16.484Z,15.50
2022-10-25T17:37:44.511Z,15.32
2022-10-25T17:40:14.033Z,15.22
2022-10-25T17:42:41.420Z,15.23
2022-10-25T17:45:09.563Z,15.02
2022-10-25T17:47:37.709Z,14.95
2022-10-25T17:50:05.697Z,15.37
2022-10-25T17:52:33.295Z,15.46
2022-10-25T17:55:01.343Z,15.27
2022-10-25T17:57:29.175Z,15.22
2022-10-25T17:59:58.348Z,14.99
2022-10-25T18:02:25.847Z,15.17
2022-10-25T18:05:15.214Z,15.07
2022-10-25T18:07:41.456Z,14.56
2022-10-25T18:10:09.490Z,14.84
2022-10-25T18:12:37.081Z,14.54
2022-10-25T18:15:06.081Z,14.63
2022-10-25T18:17:33.932Z,14.41
2022-10-25T18:20:01.652Z,14.16
2022-10-25T18:22:29.607Z,14.57
2022-10-25T18:24:57.644Z,14.53
2022-10-25T18:27:25.472Z,14.24
2022-10-25T18:29:53.357Z,14.40
2022-10-25T18:32:30.920Z,14.08
2022-10-25T18:35:01.597Z,13.53
2022-10-25T18:37:29.658Z,14.05
2022-10-25T18:39:57.694Z,14.07
2022-10-25T18:42:25.459Z,14.23
2022-10-25T18:44:55.369Z,14.45
2022-10-25T18:47:23.145Z,13.93
2022-10-25T18:49:50.962Z,13.48
2022-10-25T18:52:18.639Z,13.30
2022-10-25T18:54:46.354Z,13.33
2022-10-25T18:57:15.277Z,13.62
2022-10-25T18:59:43.443Z,13.52
2022-10-25T19:02:11.686Z,13.64
2022-10-25T19:04:39.787Z,13.39
2022-10-25T19:07:07.921Z,13.32
2022-10-25T19:09:35.862Z,13.70
2022-10-25T19:12:03.462Z,13.97
2022-10-25T19:14:31.223Z,13.64
2022-10-25T19:16:59.005Z,13.36
2022-10-25T19:19:26.954Z,13.32
2022-10-25T19:21:55.316Z,13.50
2022-10-25T19:24:23.498Z,13.54
2022-10-25T19:26:51.304Z,13.34
2022-10-25T19:29:18.919Z,13.13
2022-10-25T19:31:46.813Z,13.11
2022-10-25T19:34:14.465Z,12.91
2022-10-25T19:36:42.525Z,13.33
2022-10-25T19:39:10.331Z,13.21
2022-10-25T19:41:38.422Z,13.54
2022-10-25T19:44:06.652Z,13.52
2022-10-25T19:46:34.740Z,13.49
2022-10-25T19:49:02.791Z,13.32
2022-10-25T19:51:31.093Z,13.64
2022-10-25T19:53:59.015Z,13.55
2022-10-25T19:56:26.838Z,13.64
2022-10-25T19:58:54.797Z,13.52
2022-10-25T20:01:29.385Z,13.29
2022-10-25T20:03:59.145Z,12.96
2022-10-25T20:06:29.236Z,13.32
2022-10-25T20:08:57.799Z,13.17
2022-10-25T20:11:26.378Z,13.33
2022-10-25T20:13:55.417Z,13.20
2022-10-25T20:16:24.252Z,13.04
2022-10-25T20:18:52.364Z,12.81
2022-10-25T20:21:25.119Z,13.16
2022-10-25T20:24:01.367Z,13.32
2022-10-25T20:26:31.768Z,13.23
2022-10-25T20:29:02.901Z,13.22
2022-10-25T20:31:32.206Z,12.58
2022-10-25T20:34:00.637Z,12.31
2022-10-25T20:36:28.336Z,12.63
2022-10-25T20:38:55.915Z,12.57
2022-10-25T20:41:26.178Z,12.62
2022-10-25T20:43:57.172Z,12.56
2022-10-25T20:46:26.106Z,12.33
2022-10-25T20:48:54.072Z,12.56
2022-10-25T20:51:21.722Z,12.61
2022-10-25T20:53:49.540Z,12.67
2022-10-25T20:56:17.851Z,12.59
2022-10-25T20:58:45.487Z,12.09
2022-10-25T21:01:13.281Z,11.93
2022-10-25T21:03:40.706Z,11.76
2022-10-25T21:06:10.595Z,12.25
2022-10-25T21:08:38.295Z,12.47
2022-10-25T21:11:07.694Z,12.57
2022-10-25T21:13:35.890Z,12.47
2022-10-25T21:16:07.393Z,12.22
2022-10-25T21:18:36.093Z,12.39
2022-10-25T21:21:06.741Z,11.61
2022-10-25T21:23:34.477Z,11.88
2022-10-25T21:26:04.187Z,11.52
2022-10-25T21:28:36.743Z,11.65
2022-10-25T21:31:15.546Z,12.13
2022-10-25T21:33:51.807Z,12.22
2022-10-25T21:36:20.592Z,11.96
2022-10-25T21:38:48.622Z,12.13
2022-10-25T21:41:18.063Z,12.39
2022-10-25T21:43:47.366Z,12.36
2022-10-25T21:46:16.818Z,12.66
2022-10-25T21:48:47.173Z,12.58
2022-10-25T21:51:15.296Z,12.46
2022-10-25T21:53:42.860Z,12.47
2022-10-25T21:56:14.857Z,12.01
2022-10-25T21:58:44.586Z,12.07
2022-10-25T22:01:14.465Z,12.01
2022-10-25T22:03:42.352Z,12.31
2022-10-25T22:06:14.723Z,12.59
2022-10-25T22:08:42.754Z,12.35
2022-10-25T22:11:15.592Z,12.26
2022-10-25T22:13:43.981Z,11.88
2022-10-25T22:16:18.455Z,12.29
2022-10-25T22:19:00.205Z,12.48
2022-10-25T22:21:29.674Z,12.39
2022-10-25T22:23:57.621Z,12.42
2022-10-25T22:26:25.023Z,12.50
2022-10-25T22:28:53.485Z,11.80
2022-10-25T22:31:21.819Z,11.44
2022-10-25T22:33:54.741Z,11.37
2022-10-25T22:36:24.323Z,11.73
2022-10-25T22:38:51.931Z,11.83
2022-10-25T22:41:21.739Z,12.23
2022-10-25T22:43:49.785Z,11.95
2022-10-25T22:46:24.149Z,11.92
2022-10-25T22:48:53.430Z,11.74
2022-10-25T22:51:21.370Z,11.66
2022-10-25T22:53:48.698Z,11.87
2022-10-25T22:56:18.620Z,11.90
2022-10-25T22:58:51.315Z,11.62
2022-10-25T23:01:23.462Z,11.39
2022-10-25T23:03:54.520Z,11.27
2022-10-25T23:06:24.877Z,11.82
2022-10-25T23:09:05.010Z,12.00
2022-10-25T23:11:34.981Z,11.87
2022-10-25T23:14:02.709Z,11.68
2022-10-25T23:16:30.059Z,11.68
2022-10-25T23:18:57.887Z,11.79
2022-10-25T23:21:27.004Z,11.80
2022-10-25T23:23:54.942Z,12.23
2022-10-25T23:26:31.798Z,12.11
2022-10-25T23:28:59.820Z,12.25
2022-10-25T23:31:28.072Z,12.09
2022-10-25T23:33:57.504Z,12.18
2022-10-25T23:36:27.132Z,11.61
2022-10-25T23:38:55.464Z,11.70
2022-10-25T23:41:22.975Z,11.99
2022-10-25T23:43:50.574Z,11.66
2022-10-25T23:46:18.171Z,11.56
2022-10-25T23:48:45.494Z,11.18
2022-10-25T23:51:15.366Z,10.97
2022-10-25T23:53:43.273Z,10.71
2022-10-25T23:56:12.574Z,11.31
2022-10-25T23:58:40.184Z,10.78
